Terminal Aerodrome Forecast
Issued by NWS

Home | Current Version | Previous Version | Text Only | Print | Product List | Glossary On
Versions: 1 2 3 4 5 6 7 8 9 10 11 12 13 14 15 16 17 18
207
FTPA31 PHFO 212340
TAFHNY
TAF
PHNY 212340Z 2200/2224 03017G25KT P6SM SCT020 BKN045
     FM220500 05014KT P6SM FEW020 SCT040
     FM222000 04018G28KT P6SM SCT025 BKN045=

USA.gov is the U.S. government's official web portal to all federal, state and local government web resources and services.